sensor_id;sensor_type;location;lat;lon;timestamp;P1;durP1;ratioP1;P2;durP2;ratioP2
52540;SDS011;56003;48.556;9.370;2022-07-24T00:01:45;17.10;;;15.57;;
52540;SDS011;56003;48.556;9.370;2022-07-24T00:04:10;19.80;;;18.03;;
52540;SDS011;56003;48.556;9.370;2022-07-24T00:06:36;16.97;;;15.47;;
52540;SDS011;56003;48.556;9.370;2022-07-24T00:09:01;18.03;;;16.53;;
52540;SDS011;56003;48.556;9.370;2022-07-24T00:11:27;18.03;;;16.30;;
52540;SDS011;56003;48.556;9.370;2022-07-24T00:13:52;17.57;;;15.93;;
52540;SDS011;56003;48.556;9.370;2022-07-24T00:16:17;19.40;;;17.50;;
52540;SDS011;56003;48.556;9.370;2022-07-24T00:18:42;18.13;;;16.43;;
52540;SDS011;56003;48.556;9.370;2022-07-24T00:21:08;18.27;;;16.73;;
52540;SDS011;56003;48.556;9.370;2022-07-24T00:23:33;16.57;;;15.07;;
52540;SDS011;56003;48.556;9.370;2022-07-24T00:25:59;17.50;;;15.80;;
52540;SDS011;56003;48.556;9.370;2022-07-24T00:28:25;16.60;;;15.20;;
52540;SDS011;56003;48.556;9.370;2022-07-24T00:30:50;16.77;;;15.37;;
52540;SDS011;56003;48.556;9.370;2022-07-24T00:33:15;15.93;;;14.50;;
52540;SDS011;56003;48.556;9.370;2022-07-24T00:35:41;16.27;;;14.73;;
52540;SDS011;56003;48.556;9.370;2022-07-24T00:38:07;17.03;;;15.43;;
52540;SDS011;56003;48.556;9.370;2022-07-24T00:40:32;17.10;;;15.40;;
52540;SDS011;56003;48.556;9.370;2022-07-24T00:42:57;18.20;;;16.50;;
52540;SDS011;56003;48.556;9.370;2022-07-24T00:45:23;17.33;;;15.83;;
52540;SDS011;56003;48.556;9.370;2022-07-24T00:47:49;17.10;;;15.50;;
52540;SDS011;56003;48.556;9.370;2022-07-24T00:50:15;16.90;;;15.37;;
52540;SDS011;56003;48.556;9.370;2022-07-24T00:52:40;17.03;;;15.07;;
52540;SDS011;56003;48.556;9.370;2022-07-24T00:55:05;15.60;;;14.40;;
52540;SDS011;56003;48.556;9.370;2022-07-24T00:57:31;16.27;;;14.87;;
52540;SDS011;56003;48.556;9.370;2022-07-24T00:59:56;15.73;;;14.30;;
52540;SDS011;56003;48.556;9.370;2022-07-24T01:02:22;16.30;;;14.73;;
52540;SDS011;56003;48.556;9.370;2022-07-24T01:04:49;16.57;;;14.93;;
52540;SDS011;56003;48.556;9.370;2022-07-24T01:07:15;16.60;;;14.53;;
52540;SDS011;56003;48.556;9.370;2022-07-24T01:09:40;15.60;;;14.20;;
52540;SDS011;56003;48.556;9.370;2022-07-24T01:12:06;15.63;;;14.33;;
52540;SDS011;56003;48.556;9.370;2022-07-24T01:14:32;16.03;;;14.43;;
52540;SDS011;56003;48.556;9.370;2022-07-24T01:16:58;15.30;;;13.90;;
52540;SDS011;56003;48.556;9.370;2022-07-24T01:19:23;16.57;;;15.20;;
52540;SDS011;56003;48.556;9.370;2022-07-24T01:21:49;16.07;;;14.47;;
52540;SDS011;56003;48.556;9.370;2022-07-24T01:24:16;16.00;;;14.40;;
52540;SDS011;56003;48.556;9.370;2022-07-24T01:26:42;15.67;;;14.23;;
52540;SDS011;56003;48.556;9.370;2022-07-24T01:29:08;15.93;;;14.63;;
52540;SDS011;56003;48.556;9.370;2022-07-24T01:31:33;15.70;;;14.40;;
52540;SDS011;56003;48.556;9.370;2022-07-24T01:33:59;17.10;;;15.57;;
52540;SDS011;56003;48.556;9.370;2022-07-24T01:36:24;14.93;;;13.63;;
52540;SDS011;56003;48.556;9.370;2022-07-24T01:38:49;15.63;;;14.13;;
52540;SDS011;56003;48.556;9.370;2022-07-24T01:41:14;14.27;;;12.87;;
52540;SDS011;56003;48.556;9.370;2022-07-24T01:43:40;15.37;;;13.73;;
52540;SDS011;56003;48.556;9.370;2022-07-24T01:46:05;17.47;;;15.80;;
52540;SDS011;56003;48.556;9.370;2022-07-24T01:48:31;16.30;;;14.60;;
52540;SDS011;56003;48.556;9.370;2022-07-24T01:50:56;17.50;;;15.67;;
52540;SDS011;56003;48.556;9.370;2022-07-24T01:53:22;16.93;;;15.40;;
52540;SDS011;56003;48.556;9.370;2022-07-24T01:55:49;15.90;;;14.40;;
52540;SDS011;56003;48.556;9.370;2022-07-24T01:58:15;17.23;;;15.60;;
52540;SDS011;56003;48.556;9.370;2022-07-24T02:00:40;16.57;;;15.27;;
52540;SDS011;56003;48.556;9.370;2022-07-24T02:03:06;17.20;;;15.70;;
52540;SDS011;56003;48.556;9.370;2022-07-24T02:05:31;16.73;;;15.10;;
52540;SDS011;56003;48.556;9.370;2022-07-24T02:07:57;15.27;;;13.87;;
52540;SDS011;56003;48.556;9.370;2022-07-24T02:10:24;16.90;;;15.27;;
52540;SDS011;56003;48.556;9.370;2022-07-24T02:12:50;17.47;;;15.70;;
52540;SDS011;56003;48.556;9.370;2022-07-24T02:15:15;17.10;;;15.40;;
52540;SDS011;56003;48.556;9.370;2022-07-24T02:17:45;16.47;;;15.03;;
52540;SDS011;56003;48.556;9.370;2022-07-24T02:20:11;17.00;;;15.50;;
52540;SDS011;56003;48.556;9.370;2022-07-24T02:22:36;15.13;;;13.80;;
52540;SDS011;56003;48.556;9.370;2022-07-24T02:25:02;17.10;;;15.53;;
52540;SDS011;56003;48.556;9.370;2022-07-24T02:27:27;15.97;;;14.40;;
52540;SDS011;56003;48.556;9.370;2022-07-24T02:29:52;17.10;;;15.30;;
52540;SDS011;56003;48.556;9.370;2022-07-24T02:32:18;16.63;;;15.23;;
52540;SDS011;56003;48.556;9.370;2022-07-24T02:34:43;16.60;;;15.03;;
52540;SDS011;56003;48.556;9.370;2022-07-24T02:37:08;16.80;;;15.20;;
52540;SDS011;56003;48.556;9.370;2022-07-24T02:39:33;17.03;;;15.40;;
52540;SDS011;56003;48.556;9.370;2022-07-24T02:41:59;16.20;;;14.67;;
52540;SDS011;56003;48.556;9.370;2022-07-24T02:44:24;16.10;;;14.80;;
52540;SDS011;56003;48.556;9.370;2022-07-24T02:46:49;17.73;;;16.13;;
52540;SDS011;56003;48.556;9.370;2022-07-24T02:49:15;17.57;;;16.07;;
52540;SDS011;56003;48.556;9.370;2022-07-24T02:51:40;17.43;;;15.93;;
52540;SDS011;56003;48.556;9.370;2022-07-24T02:54:05;16.90;;;15.20;;
52540;SDS011;56003;48.556;9.370;2022-07-24T02:56:31;17.13;;;15.73;;
52540;SDS011;56003;48.556;9.370;2022-07-24T02:58:56;16.10;;;14.67;;
52540;SDS011;56003;48.556;9.370;2022-07-24T03:01:21;17.53;;;15.90;;
52540;SDS011;56003;48.556;9.370;2022-07-24T03:03:46;15.93;;;14.70;;
52540;SDS011;56003;48.556;9.370;2022-07-24T03:06:12;18.20;;;15.50;;
52540;SDS011;56003;48.556;9.370;2022-07-24T03:08:37;16.47;;;14.87;;
52540;SDS011;56003;48.556;9.370;2022-07-24T03:11:02;16.97;;;15.20;;
52540;SDS011;56003;48.556;9.370;2022-07-24T03:13:27;16.10;;;14.60;;
52540;SDS011;56003;48.556;9.370;2022-07-24T03:15:53;16.47;;;14.93;;
52540;SDS011;56003;48.556;9.370;2022-07-24T03:18:18;16.17;;;14.60;;
52540;SDS011;56003;48.556;9.370;2022-07-24T03:20:43;16.93;;;15.37;;
52540;SDS011;56003;48.556;9.370;2022-07-24T03:23:09;15.47;;;14.07;;
52540;SDS011;56003;48.556;9.370;2022-07-24T03:25:34;15.27;;;13.67;;
52540;SDS011;56003;48.556;9.370;2022-07-24T03:27:59;15.10;;;13.80;;
52540;SDS011;56003;48.556;9.370;2022-07-24T03:30:25;18.43;;;14.30;;
52540;SDS011;56003;48.556;9.370;2022-07-24T03:32:50;15.73;;;14.37;;
52540;SDS011;56003;48.556;9.370;2022-07-24T03:35:15;15.43;;;13.87;;
52540;SDS011;56003;48.556;9.370;2022-07-24T03:37:40;15.77;;;14.20;;
52540;SDS011;56003;48.556;9.370;2022-07-24T03:40:06;16.87;;;15.40;;
52540;SDS011;56003;48.556;9.370;2022-07-24T03:42:32;15.17;;;13.73;;
52540;SDS011;56003;48.556;9.370;2022-07-24T03:44:58;15.17;;;13.87;;
52540;SDS011;56003;48.556;9.370;2022-07-24T03:47:23;16.17;;;14.47;;
52540;SDS011;56003;48.556;9.370;2022-07-24T03:49:48;15.87;;;14.47;;
52540;SDS011;56003;48.556;9.370;2022-07-24T03:52:14;14.83;;;13.43;;
52540;SDS011;56003;48.556;9.370;2022-07-24T03:54:39;14.10;;;12.90;;
52540;SDS011;56003;48.556;9.370;2022-07-24T03:57:04;14.67;;;13.30;;
52540;SDS011;56003;48.556;9.370;2022-07-24T03:59:31;15.93;;;14.50;;
52540;SDS011;56003;48.556;9.370;2022-07-24T04:01:56;14.50;;;13.40;;
52540;SDS011;56003;48.556;9.370;2022-07-24T04:04:21;16.23;;;14.20;;
52540;SDS011;56003;48.556;9.370;2022-07-24T04:06:47;15.37;;;13.97;;
52540;SDS011;56003;48.556;9.370;2022-07-24T04:09:12;15.57;;;14.17;;
52540;SDS011;56003;48.556;9.370;2022-07-24T04:11:38;16.20;;;13.83;;
52540;SDS011;56003;48.556;9.370;2022-07-24T04:14:03;15.70;;;14.30;;
52540;SDS011;56003;48.556;9.370;2022-07-24T04:16:29;15.80;;;14.30;;
52540;SDS011;56003;48.556;9.370;2022-07-24T04:18:55;15.80;;;14.13;;
52540;SDS011;56003;48.556;9.370;2022-07-24T04:21:20;14.90;;;13.50;;
52540;SDS011;56003;48.556;9.370;2022-07-24T04:23:45;15.80;;;14.30;;
52540;SDS011;56003;48.556;9.370;2022-07-24T04:26:10;15.30;;;13.80;;
52540;SDS011;56003;48.556;9.370;2022-07-24T04:28:36;15.57;;;14.07;;
52540;SDS011;56003;48.556;9.370;2022-07-24T04:31:01;16.50;;;15.00;;
52540;SDS011;56003;48.556;9.370;2022-07-24T04:33:27;16.20;;;14.60;;
52540;SDS011;56003;48.556;9.370;2022-07-24T04:35:52;14.90;;;13.60;;
52540;SDS011;56003;48.556;9.370;2022-07-24T04:38:18;16.17;;;14.20;;
52540;SDS011;56003;48.556;9.370;2022-07-24T04:40:43;14.60;;;13.40;;
52540;SDS011;56003;48.556;9.370;2022-07-24T04:43:09;14.23;;;12.93;;
52540;SDS011;56003;48.556;9.370;2022-07-24T04:45:34;15.70;;;13.97;;
52540;SDS011;56003;48.556;9.370;2022-07-24T04:47:59;14.40;;;12.90;;
52540;SDS011;56003;48.556;9.370;2022-07-24T04:50:25;15.13;;;13.70;;
52540;SDS011;56003;48.556;9.370;2022-07-24T04:52:50;15.30;;;13.90;;
52540;SDS011;56003;48.556;9.370;2022-07-24T04:55:15;14.30;;;13.10;;
52540;SDS011;56003;48.556;9.370;2022-07-24T04:57:40;14.20;;;12.87;;
52540;SDS011;56003;48.556;9.370;2022-07-24T05:00:07;13.97;;;12.67;;
52540;SDS011;56003;48.556;9.370;2022-07-24T05:02:34;12.70;;;11.60;;
52540;SDS011;56003;48.556;9.370;2022-07-24T05:05:00;13.90;;;12.70;;
52540;SDS011;56003;48.556;9.370;2022-07-24T05:07:25;13.87;;;12.33;;
52540;SDS011;56003;48.556;9.370;2022-07-24T05:09:51;13.73;;;12.43;;
52540;SDS011;56003;48.556;9.370;2022-07-24T05:12:17;12.57;;;11.50;;
52540;SDS011;56003;48.556;9.370;2022-07-24T05:14:42;14.30;;;13.00;;
52540;SDS011;56003;48.556;9.370;2022-07-24T05:17:07;13.43;;;12.23;;
52540;SDS011;56003;48.556;9.370;2022-07-24T05:19:33;13.93;;;12.83;;
52540;SDS011;56003;48.556;9.370;2022-07-24T05:21:58;15.27;;;13.90;;
52540;SDS011;56003;48.556;9.370;2022-07-24T05:24:23;14.73;;;12.30;;
52540;SDS011;56003;48.556;9.370;2022-07-24T05:26:50;13.00;;;11.80;;
52540;SDS011;56003;48.556;9.370;2022-07-24T05:29:15;14.70;;;13.40;;
52540;SDS011;56003;48.556;9.370;2022-07-24T05:31:40;13.90;;;12.80;;
52540;SDS011;56003;48.556;9.370;2022-07-24T05:34:06;14.50;;;13.30;;
52540;SDS011;56003;48.556;9.370;2022-07-24T05:36:31;15.07;;;13.77;;
52540;SDS011;56003;48.556;9.370;2022-07-24T05:38:56;14.37;;;13.13;;
52540;SDS011;56003;48.556;9.370;2022-07-24T05:41:22;15.63;;;14.23;;
52540;SDS011;56003;48.556;9.370;2022-07-24T05:43:47;15.30;;;13.97;;
52540;SDS011;56003;48.556;9.370;2022-07-24T05:46:12;15.70;;;14.40;;
52540;SDS011;56003;48.556;9.370;2022-07-24T05:52:01;15.93;;;14.47;;
52540;SDS011;56003;48.556;9.370;2022-07-24T06:02:25;14.40;;;13.10;;
52540;SDS011;56003;48.556;9.370;2022-07-24T06:04:53;13.40;;;12.30;;
52540;SDS011;56003;48.556;9.370;2022-07-24T06:07:19;13.83;;;12.33;;
52540;SDS011;56003;48.556;9.370;2022-07-24T06:09:44;12.60;;;11.70;;
52540;SDS011;56003;48.556;9.370;2022-07-24T06:12:09;13.80;;;12.80;;
52540;SDS011;56003;48.556;9.370;2022-07-24T06:14:34;14.07;;;12.87;;
52540;SDS011;56003;48.556;9.370;2022-07-24T06:17:03;12.53;;;11.53;;
52540;SDS011;56003;48.556;9.370;2022-07-24T06:19:28;13.83;;;12.73;;
52540;SDS011;56003;48.556;9.370;2022-07-24T06:21:53;13.20;;;12.20;;
52540;SDS011;56003;48.556;9.370;2022-07-24T06:24:19;13.70;;;12.70;;
52540;SDS011;56003;48.556;9.370;2022-07-24T06:26:44;14.03;;;12.83;;
52540;SDS011;56003;48.556;9.370;2022-07-24T06:29:10;13.47;;;12.17;;
52540;SDS011;56003;48.556;9.370;2022-07-24T06:31:35;13.93;;;12.80;;
52540;SDS011;56003;48.556;9.370;2022-07-24T06:34:00;13.50;;;12.47;;
52540;SDS011;56003;48.556;9.370;2022-07-24T06:36:25;13.53;;;12.13;;
52540;SDS011;56003;48.556;9.370;2022-07-24T06:38:52;13.20;;;11.97;;
52540;SDS011;56003;48.556;9.370;2022-07-24T06:41:17;12.97;;;11.63;;
52540;SDS011;56003;48.556;9.370;2022-07-24T06:43:43;12.53;;;11.53;;
52540;SDS011;56003;48.556;9.370;2022-07-24T06:46:08;13.93;;;12.37;;
52540;SDS011;56003;48.556;9.370;2022-07-24T06:48:33;12.83;;;11.83;;
52540;SDS011;56003;48.556;9.370;2022-07-24T06:50:58;13.93;;;12.57;;
52540;SDS011;56003;48.556;9.370;2022-07-24T06:53:24;13.13;;;11.83;;
52540;SDS011;56003;48.556;9.370;2022-07-24T06:55:49;13.50;;;12.40;;
52540;SDS011;56003;48.556;9.370;2022-07-24T06:58:18;12.97;;;11.97;;
52540;SDS011;56003;48.556;9.370;2022-07-24T07:00:44;13.80;;;12.50;;
52540;SDS011;56003;48.556;9.370;2022-07-24T07:03:10;11.80;;;10.80;;
52540;SDS011;56003;48.556;9.370;2022-07-24T07:05:35;12.97;;;11.77;;
52540;SDS011;56003;48.556;9.370;2022-07-24T07:08:01;12.47;;;11.17;;
52540;SDS011;56003;48.556;9.370;2022-07-24T07:10:26;12.90;;;11.80;;
52540;SDS011;56003;48.556;9.370;2022-07-24T07:12:51;12.23;;;11.33;;
52540;SDS011;56003;48.556;9.370;2022-07-24T07:15:17;12.50;;;11.50;;
52540;SDS011;56003;48.556;9.370;2022-07-24T07:17:42;11.93;;;11.03;;
52540;SDS011;56003;48.556;9.370;2022-07-24T07:20:08;11.77;;;10.67;;
52540;SDS011;56003;48.556;9.370;2022-07-24T07:22:35;12.57;;;11.47;;
52540;SDS011;56003;48.556;9.370;2022-07-24T07:25:00;11.40;;;10.40;;
52540;SDS011;56003;48.556;9.370;2022-07-24T07:27:26;10.93;;;10.13;;
52540;SDS011;56003;48.556;9.370;2022-07-24T07:29:52;11.47;;;10.47;;
52540;SDS011;56003;48.556;9.370;2022-07-24T07:32:17;11.10;;;10.17;;
52540;SDS011;56003;48.556;9.370;2022-07-24T07:34:42;12.00;;;10.90;;
52540;SDS011;56003;48.556;9.370;2022-07-24T07:37:08;11.77;;;10.77;;
52540;SDS011;56003;48.556;9.370;2022-07-24T07:39:33;12.33;;;9.43;;
52540;SDS011;56003;48.556;9.370;2022-07-24T07:41:58;11.67;;;10.60;;
52540;SDS011;56003;48.556;9.370;2022-07-24T07:44:24;10.23;;;9.43;;
52540;SDS011;56003;48.556;9.370;2022-07-24T07:46:49;10.43;;;9.63;;
52540;SDS011;56003;48.556;9.370;2022-07-24T07:49:14;10.03;;;9.23;;
52540;SDS011;56003;48.556;9.370;2022-07-24T07:51:39;10.40;;;9.40;;
52540;SDS011;56003;48.556;9.370;2022-07-24T07:54:05;10.47;;;9.57;;
52540;SDS011;56003;48.556;9.370;2022-07-24T07:56:30;8.70;;;8.10;;
52540;SDS011;56003;48.556;9.370;2022-07-24T07:58:57;9.20;;;8.30;;
52540;SDS011;56003;48.556;9.370;2022-07-24T08:01:23;9.67;;;8.97;;
52540;SDS011;56003;48.556;9.370;2022-07-24T08:03:48;9.70;;;9.10;;
52540;SDS011;56003;48.556;9.370;2022-07-24T08:06:13;8.40;;;7.80;;
52540;SDS011;56003;48.556;9.370;2022-07-24T08:08:39;9.43;;;8.83;;
52540;SDS011;56003;48.556;9.370;2022-07-24T08:11:04;9.57;;;8.80;;
52540;SDS011;56003;48.556;9.370;2022-07-24T08:13:29;9.73;;;8.93;;
52540;SDS011;56003;48.556;9.370;2022-07-24T08:15:55;10.20;;;9.40;;
52540;SDS011;56003;48.556;9.370;2022-07-24T08:18:20;9.93;;;9.03;;
52540;SDS011;56003;48.556;9.370;2022-07-24T08:20:45;8.97;;;8.37;;
52540;SDS011;56003;48.556;9.370;2022-07-24T08:23:11;9.53;;;8.60;;
52540;SDS011;56003;48.556;9.370;2022-07-24T08:25:36;9.33;;;8.73;;
52540;SDS011;56003;48.556;9.370;2022-07-24T08:28:01;8.97;;;8.30;;
52540;SDS011;56003;48.556;9.370;2022-07-24T08:30:27;10.00;;;9.10;;
52540;SDS011;56003;48.556;9.370;2022-07-24T08:32:52;10.03;;;9.13;;
52540;SDS011;56003;48.556;9.370;2022-07-24T08:35:18;9.80;;;9.10;;
52540;SDS011;56003;48.556;9.370;2022-07-24T08:37:43;9.37;;;8.77;;
52540;SDS011;56003;48.556;9.370;2022-07-24T08:40:09;10.10;;;9.30;;
52540;SDS011;56003;48.556;9.370;2022-07-24T08:42:36;11.60;;;9.13;;
52540;SDS011;56003;48.556;9.370;2022-07-24T08:45:03;9.87;;;9.03;;
52540;SDS011;56003;48.556;9.370;2022-07-24T08:47:29;10.17;;;9.37;;
52540;SDS011;56003;48.556;9.370;2022-07-24T08:49:57;10.00;;;9.20;;
52540;SDS011;56003;48.556;9.370;2022-07-24T08:52:23;9.80;;;9.10;;
52540;SDS011;56003;48.556;9.370;2022-07-24T08:54:49;10.00;;;9.30;;
52540;SDS011;56003;48.556;9.370;2022-07-24T08:57:15;10.43;;;9.63;;
52540;SDS011;56003;48.556;9.370;2022-07-24T08:59:40;11.40;;;9.60;;
52540;SDS011;56003;48.556;9.370;2022-07-24T09:02:06;10.23;;;9.53;;
52540;SDS011;56003;48.556;9.370;2022-07-24T09:04:39;10.70;;;9.90;;
52540;SDS011;56003;48.556;9.370;2022-07-24T09:07:07;9.70;;;9.03;;
52540;SDS011;56003;48.556;9.370;2022-07-24T09:09:35;11.23;;;9.63;;
52540;SDS011;56003;48.556;9.370;2022-07-24T09:14:32;9.55;;;8.95;;
52540;SDS011;56003;48.556;9.370;2022-07-24T09:17:02;9.45;;;8.65;;
52540;SDS011;56003;48.556;9.370;2022-07-24T09:19:29;9.68;;;8.88;;
52540;SDS011;56003;48.556;9.370;2022-07-24T09:21:55;10.88;;;10.07;;
52540;SDS011;56003;48.556;9.370;2022-07-24T09:24:21;10.77;;;9.82;;
52540;SDS011;56003;48.556;9.370;2022-07-24T09:26:48;10.70;;;9.90;;
52540;SDS011;56003;48.556;9.370;2022-07-24T09:29:21;9.93;;;9.15;;
52540;SDS011;56003;48.556;9.370;2022-07-24T09:34:20;9.80;;;9.10;;
52540;SDS011;56003;48.556;9.370;2022-07-24T09:36:54;10.18;;;9.20;;
52540;SDS011;56003;48.556;9.370;2022-07-24T09:39:21;10.63;;;9.70;;
52540;SDS011;56003;48.556;9.370;2022-07-24T09:41:51;9.35;;;8.75;;
52540;SDS011;56003;48.556;9.370;2022-07-24T09:44:19;10.32;;;9.57;;
52540;SDS011;56003;48.556;9.370;2022-07-24T09:46:48;11.57;;;9.88;;
52540;SDS011;56003;48.556;9.370;2022-07-24T09:49:27;9.50;;;8.90;;
52540;SDS011;56003;48.556;9.370;2022-07-24T09:52:13;10.68;;;9.88;;
52540;SDS011;56003;48.556;9.370;2022-07-24T09:54:46;10.30;;;9.70;;
52540;SDS011;56003;48.556;9.370;2022-07-24T09:57:14;10.77;;;10.00;;
52540;SDS011;56003;48.556;9.370;2022-07-24T09:59:40;10.45;;;9.63;;
52540;SDS011;56003;48.556;9.370;2022-07-24T10:02:06;11.48;;;10.48;;
52540;SDS011;56003;48.556;9.370;2022-07-24T10:04:32;11.60;;;10.70;;
52540;SDS011;56003;48.556;9.370;2022-07-24T10:06:59;12.17;;;11.10;;
52540;SDS011;56003;48.556;9.370;2022-07-24T10:09:27;11.17;;;10.30;;
52540;SDS011;56003;48.556;9.370;2022-07-24T10:11:54;14.50;;;10.40;;
52540;SDS011;56003;48.556;9.370;2022-07-24T10:14:22;11.43;;;10.43;;
52540;SDS011;56003;48.556;9.370;2022-07-24T10:16:51;10.50;;;9.70;;
52540;SDS011;56003;48.556;9.370;2022-07-24T10:19:30;10.60;;;9.70;;
52540;SDS011;56003;48.556;9.370;2022-07-24T10:22:06;10.90;;;10.00;;
52540;SDS011;56003;48.556;9.370;2022-07-24T10:24:43;11.30;;;10.40;;
52540;SDS011;56003;48.556;9.370;2022-07-24T10:29:51;11.10;;;10.20;;
52540;SDS011;56003;48.556;9.370;2022-07-24T10:32:18;10.67;;;9.77;;
52540;SDS011;56003;48.556;9.370;2022-07-24T10:48:34;11.43;;;10.70;;
52540;SDS011;56003;48.556;9.370;2022-07-24T10:51:11;9.73;;;9.03;;
52540;SDS011;56003;48.556;9.370;2022-07-24T10:53:43;10.93;;;10.17;;
52540;SDS011;56003;48.556;9.370;2022-07-24T10:56:18;10.40;;;9.60;;
52540;SDS011;56003;48.556;9.370;2022-07-24T10:59:04;10.23;;;9.53;;
52540;SDS011;56003;48.556;9.370;2022-07-24T11:04:03;9.00;;;8.40;;
52540;SDS011;56003;48.556;9.370;2022-07-24T11:06:52;9.82;;;9.13;;
52540;SDS011;56003;48.556;9.370;2022-07-24T11:09:19;8.65;;;8.15;;
52540;SDS011;56003;48.556;9.370;2022-07-24T11:14:20;10.07;;;9.38;;
52540;SDS011;56003;48.556;9.370;2022-07-24T11:16:48;10.68;;;9.98;;
52540;SDS011;56003;48.556;9.370;2022-07-24T11:21:42;9.15;;;8.48;;
52540;SDS011;56003;48.556;9.370;2022-07-24T11:26:39;9.32;;;8.63;;
52540;SDS011;56003;48.556;9.370;2022-07-24T11:29:15;8.57;;;8.02;;
52540;SDS011;56003;48.556;9.370;2022-07-24T11:31:46;9.73;;;8.93;;
52540;SDS011;56003;48.556;9.370;2022-07-24T11:34:12;10.65;;;9.85;;
52540;SDS011;56003;48.556;9.370;2022-07-24T11:36:42;8.80;;;8.20;;
52540;SDS011;56003;48.556;9.370;2022-07-24T11:39:09;9.35;;;8.65;;
52540;SDS011;56003;48.556;9.370;2022-07-24T11:41:44;10.15;;;9.32;;
52540;SDS011;56003;48.556;9.370;2022-07-24T11:44:11;9.07;;;8.48;;
52540;SDS011;56003;48.556;9.370;2022-07-24T11:46:37;9.48;;;8.77;;
52540;SDS011;56003;48.556;9.370;2022-07-24T11:49:04;10.27;;;9.57;;
52540;SDS011;56003;48.556;9.370;2022-07-24T11:51:31;9.63;;;9.02;;
52540;SDS011;56003;48.556;9.370;2022-07-24T11:53:57;9.90;;;9.20;;
52540;SDS011;56003;48.556;9.370;2022-07-24T11:56:22;9.30;;;8.70;;
52540;SDS011;56003;48.556;9.370;2022-07-24T11:58:48;10.60;;;9.90;;
52540;SDS011;56003;48.556;9.370;2022-07-24T12:01:20;9.75;;;9.05;;
52540;SDS011;56003;48.556;9.370;2022-07-24T12:03:48;9.55;;;8.93;;
52540;SDS011;56003;48.556;9.370;2022-07-24T12:06:18;10.27;;;9.68;;
52540;SDS011;56003;48.556;9.370;2022-07-24T12:08:45;10.48;;;9.73;;
52540;SDS011;56003;48.556;9.370;2022-07-24T12:11:10;9.85;;;9.32;;
52540;SDS011;56003;48.556;9.370;2022-07-24T12:13:40;11.70;;;10.75;;
52540;SDS011;56003;48.556;9.370;2022-07-24T12:16:07;10.23;;;9.63;;
52540;SDS011;56003;48.556;9.370;2022-07-24T12:18:32;10.75;;;9.75;;
52540;SDS011;56003;48.556;9.370;2022-07-24T12:21:03;10.27;;;9.40;;
52540;SDS011;56003;48.556;9.370;2022-07-24T12:23:28;10.30;;;9.60;;
52540;SDS011;56003;48.556;9.370;2022-07-24T12:25:54;9.70;;;9.13;;
52540;SDS011;56003;48.556;9.370;2022-07-24T12:28:20;9.85;;;9.23;;
52540;SDS011;56003;48.556;9.370;2022-07-24T12:30:49;9.50;;;8.70;;
52540;SDS011;56003;48.556;9.370;2022-07-24T12:33:25;9.10;;;8.50;;
52540;SDS011;56003;48.556;9.370;2022-07-24T12:36:01;9.48;;;8.88;;
52540;SDS011;56003;48.556;9.370;2022-07-24T12:38:52;9.52;;;8.82;;
52540;SDS011;56003;48.556;9.370;2022-07-24T12:41:20;10.27;;;9.45;;
52540;SDS011;56003;48.556;9.370;2022-07-24T12:46:30;9.55;;;8.95;;
52540;SDS011;56003;48.556;9.370;2022-07-24T12:49:00;10.25;;;9.43;;
52540;SDS011;56003;48.556;9.370;2022-07-24T12:51:43;10.65;;;9.77;;
52540;SDS011;56003;48.556;9.370;2022-07-24T12:56:48;10.38;;;9.68;;
52540;SDS011;56003;48.556;9.370;2022-07-24T12:59:22;9.55;;;8.85;;
52540;SDS011;56003;48.556;9.370;2022-07-24T13:01:56;10.55;;;9.80;;
52540;SDS011;56003;48.556;9.370;2022-07-24T13:04:24;9.02;;;8.32;;
52540;SDS011;56003;48.556;9.370;2022-07-24T13:06:51;9.15;;;8.65;;
52540;SDS011;56003;48.556;9.370;2022-07-24T13:09:19;8.98;;;8.10;;
52540;SDS011;56003;48.556;9.370;2022-07-24T13:11:45;9.23;;;8.63;;
52540;SDS011;56003;48.556;9.370;2022-07-24T13:14:13;9.43;;;8.93;;
52540;SDS011;56003;48.556;9.370;2022-07-24T13:16:40;10.18;;;9.65;;
52540;SDS011;56003;48.556;9.370;2022-07-24T13:19:07;10.05;;;9.27;;
52540;SDS011;56003;48.556;9.370;2022-07-24T13:21:33;9.52;;;8.93;;
52540;SDS011;56003;48.556;9.370;2022-07-24T13:23:59;9.88;;;9.18;;
52540;SDS011;56003;48.556;9.370;2022-07-24T13:26:25;10.00;;;9.30;;
52540;SDS011;56003;48.556;9.370;2022-07-24T13:28:51;9.48;;;8.88;;
52540;SDS011;56003;48.556;9.370;2022-07-24T13:31:17;10.13;;;9.45;;
52540;SDS011;56003;48.556;9.370;2022-07-24T13:33:46;10.05;;;9.45;;
52540;SDS011;56003;48.556;9.370;2022-07-24T13:36:15;10.68;;;10.07;;
52540;SDS011;56003;48.556;9.370;2022-07-24T13:38:42;9.57;;;9.07;;
52540;SDS011;56003;48.556;9.370;2022-07-24T13:41:08;10.25;;;9.55;;
52540;SDS011;56003;48.556;9.370;2022-07-24T13:43:33;9.20;;;8.70;;
52540;SDS011;56003;48.556;9.370;2022-07-24T13:45:58;10.00;;;9.30;;
52540;SDS011;56003;48.556;9.370;2022-07-24T13:48:24;9.88;;;9.32;;
52540;SDS011;56003;48.556;9.370;2022-07-24T13:50:49;10.45;;;9.75;;
52540;SDS011;56003;48.556;9.370;2022-07-24T13:53:15;10.07;;;9.48;;
52540;SDS011;56003;48.556;9.370;2022-07-24T13:55:40;9.85;;;9.15;;
52540;SDS011;56003;48.556;9.370;2022-07-24T13:58:06;11.07;;;10.27;;
52540;SDS011;56003;48.556;9.370;2022-07-24T14:00:32;10.68;;;9.93;;
52540;SDS011;56003;48.556;9.370;2022-07-24T14:02:57;10.25;;;9.65;;
52540;SDS011;56003;48.556;9.370;2022-07-24T14:05:22;9.90;;;9.15;;
52540;SDS011;56003;48.556;9.370;2022-07-24T14:07:48;9.82;;;9.15;;
52540;SDS011;56003;48.556;9.370;2022-07-24T14:10:14;8.80;;;8.30;;
52540;SDS011;56003;48.556;9.370;2022-07-24T14:12:39;9.70;;;8.98;;
52540;SDS011;56003;48.556;9.370;2022-07-24T14:15:25;10.27;;;9.55;;
52540;SDS011;56003;48.556;9.370;2022-07-24T14:17:52;10.48;;;9.85;;
52540;SDS011;56003;48.556;9.370;2022-07-24T14:20:17;10.15;;;9.65;;
52540;SDS011;56003;48.556;9.370;2022-07-24T14:22:42;10.88;;;10.10;;
52540;SDS011;56003;48.556;9.370;2022-07-24T14:25:08;10.20;;;9.40;;
52540;SDS011;56003;48.556;9.370;2022-07-24T14:27:34;9.82;;;9.07;;
52540;SDS011;56003;48.556;9.370;2022-07-24T14:30:00;10.15;;;9.52;;
52540;SDS011;56003;48.556;9.370;2022-07-24T14:32:26;9.65;;;9.10;;
52540;SDS011;56003;48.556;9.370;2022-07-24T14:34:51;10.13;;;9.52;;
52540;SDS011;56003;48.556;9.370;2022-07-24T14:37:16;10.45;;;9.82;;
52540;SDS011;56003;48.556;9.370;2022-07-24T14:39:42;10.82;;;10.13;;
52540;SDS011;56003;48.556;9.370;2022-07-24T14:42:07;10.35;;;9.75;;
52540;SDS011;56003;48.556;9.370;2022-07-24T14:44:36;10.05;;;9.27;;
52540;SDS011;56003;48.556;9.370;2022-07-24T14:47:01;10.18;;;9.57;;
52540;SDS011;56003;48.556;9.370;2022-07-24T14:49:29;10.75;;;10.02;;
52540;SDS011;56003;48.556;9.370;2022-07-24T14:51:55;9.93;;;9.40;;
52540;SDS011;56003;48.556;9.370;2022-07-24T14:54:20;10.13;;;9.52;;
52540;SDS011;56003;48.556;9.370;2022-07-24T14:56:46;10.40;;;9.70;;
52540;SDS011;56003;48.556;9.370;2022-07-24T14:59:16;9.63;;;9.13;;
52540;SDS011;56003;48.556;9.370;2022-07-24T15:01:41;10.32;;;9.63;;
52540;SDS011;56003;48.556;9.370;2022-07-24T15:04:09;10.25;;;9.55;;
52540;SDS011;56003;48.556;9.370;2022-07-24T15:06:35;10.20;;;9.57;;
52540;SDS011;56003;48.556;9.370;2022-07-24T15:09:01;9.60;;;9.00;;
52540;SDS011;56003;48.556;9.370;2022-07-24T15:11:28;9.98;;;9.35;;
52540;SDS011;56003;48.556;9.370;2022-07-24T15:13:53;10.05;;;9.45;;
52540;SDS011;56003;48.556;9.370;2022-07-24T15:16:19;11.57;;;10.63;;